createdAt,value
2023-04-24T00:00:00.758Z,3.75
2023-04-24T00:02:28.619Z,3.90
2023-04-24T00:04:56.356Z,3.72
2023-04-24T00:07:24.192Z,4.07
2023-04-24T00:09:51.771Z,4.20
2023-04-24T00:12:19.254Z,4.03
2023-04-24T00:14:46.875Z,3.88
2023-04-24T00:17:15.108Z,3.67
2023-04-24T00:19:42.995Z,4.65
2023-04-24T00:22:12.047Z,4.15
2023-04-24T00:24:39.752Z,4.65
2023-04-24T00:27:07.308Z,4.35
2023-04-24T00:29:35.804Z,4.45
2023-04-24T00:32:03.824Z,5.10
2023-04-24T00:34:33.692Z,4.78
2023-04-24T00:37:01.371Z,8.00
2023-04-24T00:39:29.268Z,6.05
2023-04-24T00:41:57.864Z,6.50
2023-04-24T00:44:25.884Z,5.60
2023-04-24T00:46:55.879Z,5.07
2023-04-24T00:49:23.736Z,5.63
2023-04-24T00:51:52.378Z,5.78
2023-04-24T00:54:20.028Z,5.32
2023-04-24T00:56:48.019Z,5.70
2023-04-24T00:59:18.601Z,4.97
2023-04-24T01:01:47.106Z,5.18
2023-04-24T01:04:16.656Z,4.28
2023-04-24T01:06:45.543Z,6.10
2023-04-24T01:09:15.611Z,4.80
2023-04-24T01:11:44.413Z,5.05
2023-04-24T01:14:13.649Z,5.28
2023-04-24T01:16:42.974Z,5.50
2023-04-24T01:19:12.192Z,5.20
2023-04-24T01:21:40.979Z,4.18
2023-04-24T01:24:08.966Z,5.05
2023-04-24T01:26:36.731Z,4.80
2023-04-24T01:29:04.549Z,5.65
2023-04-24T01:31:33.256Z,5.68
2023-04-24T01:34:01.489Z,5.03
2023-04-24T01:36:30.877Z,4.47
2023-04-24T01:38:58.466Z,4.38
2023-04-24T01:41:28.644Z,5.38
2023-04-24T01:43:56.359Z,4.90
2023-04-24T01:46:24.121Z,4.72
2023-04-24T01:48:53.604Z,5.18
2023-04-24T01:51:21.620Z,4.70
2023-04-24T01:53:49.345Z,5.22
2023-04-24T01:56:16.953Z,5.47
2023-04-24T01:58:45.044Z,5.93
2023-04-24T02:01:19.042Z,5.70
2023-04-24T02:03:49.156Z,5.28
2023-04-24T02:06:17.792Z,5.25
2023-04-24T02:08:45.551Z,5.88
2023-04-24T02:11:13.033Z,5.60
2023-04-24T02:13:40.732Z,5.22
2023-04-24T02:16:08.488Z,5.18
2023-04-24T02:18:56.136Z,4.45
2023-04-24T02:21:26.420Z,5.90
2023-04-24T02:23:54.005Z,5.15
2023-04-24T02:26:21.952Z,7.50
2023-04-24T02:28:49.791Z,5.45
2023-04-24T02:31:17.623Z,5.55
2023-04-24T02:33:45.319Z,5.50
2023-04-24T02:36:12.973Z,6.97
2023-04-24T02:38:40.802Z,6.15
2023-04-24T02:41:08.656Z,7.57
2023-04-24T02:43:36.298Z,6.43
2023-04-24T02:46:04.025Z,8.25
2023-04-24T02:48:31.710Z,8.43
2023-04-24T02:50:59.336Z,8.20
2023-04-24T02:53:26.923Z,7.22
2023-04-24T02:55:54.662Z,6.68
2023-04-24T02:58:22.452Z,7.80
2023-04-24T03:00:50.412Z,8.15
2023-04-24T03:03:18.677Z,8.20
2023-04-24T03:05:46.858Z,7.60
2023-04-24T03:08:15.606Z,8.18
2023-04-24T03:10:45.246Z,7.55
2023-04-24T03:13:17.838Z,8.25
2023-04-24T03:15:46.217Z,9.38
2023-04-24T03:18:14.006Z,7.47
2023-04-24T03:20:41.701Z,8.02
2023-04-24T03:23:09.690Z,7.90
2023-04-24T03:25:38.146Z,8.32
2023-04-24T03:28:06.494Z,8.55
2023-04-24T03:30:46.608Z,8.40
2023-04-24T03:33:15.176Z,8.35
2023-04-24T03:35:52.414Z,9.70
2023-04-24T03:38:20.585Z,8.73
2023-04-24T03:41:11.488Z,9.18
2023-04-24T03:44:02.052Z,8.88
2023-04-24T03:46:29.657Z,7.93
2023-04-24T03:49:00.785Z,9.13
2023-04-24T03:51:33.217Z,9.25
2023-04-24T03:54:12.653Z,7.93
2023-04-24T03:56:41.344Z,7.72
2023-04-24T03:59:09.693Z,9.68
2023-04-24T04:01:38.375Z,8.10
2023-04-24T04:04:14.933Z,8.18
2023-04-24T04:06:45.143Z,7.95
2023-04-24T04:09:13.574Z,8.80
2023-04-24T04:11:41.322Z,8.75
2023-04-24T04:14:09.202Z,8.98
2023-04-24T04:16:40.340Z,8.60
2023-04-24T04:19:09.630Z,8.70
2023-04-24T04:21:37.461Z,8.00
2023-04-24T04:24:18.594Z,9.18
2023-04-24T04:26:48.196Z,8.38
2023-04-24T04:29:29.719Z,8.43
2023-04-24T04:31:57.715Z,8.98
2023-04-24T04:34:25.408Z,9.82
2023-04-24T04:36:53.767Z,9.13
2023-04-24T04:39:39.981Z,9.20
2023-04-24T04:42:11.740Z,8.88
2023-04-24T04:44:43.833Z,7.90
2023-04-24T04:47:17.278Z,8.20
2023-04-24T04:49:45.502Z,9.25
2023-04-24T04:55:00.580Z,8.05
2023-04-24T04:57:42.435Z,8.43
2023-04-24T05:00:11.689Z,8.00
2023-04-24T05:02:47.523Z,9.45
2023-04-24T05:05:18.611Z,8.63
2023-04-24T05:07:46.915Z,8.45
2023-04-24T05:10:14.539Z,8.32
2023-04-24T05:12:44.208Z,7.93
2023-04-24T05:15:13.400Z,8.45
2023-04-24T05:17:41.699Z,8.63
2023-04-24T05:20:10.930Z,8.20
2023-04-24T05:22:39.631Z,7.85
2023-04-24T05:25:08.804Z,6.53
2023-04-24T05:27:48.057Z,7.05
2023-04-24T05:30:18.314Z,6.80
2023-04-24T05:32:46.168Z,6.80
2023-04-24T05:35:14.880Z,7.22
2023-04-24T05:37:42.554Z,7.40
2023-04-24T05:40:12.236Z,7.32
2023-04-24T05:42:40.079Z,6.78
2023-04-24T05:45:08.428Z,7.35
2023-04-24T05:47:36.709Z,6.72
2023-04-24T05:50:04.588Z,6.25
2023-04-24T05:52:33.281Z,7.07
2023-04-24T05:55:04.477Z,4.80
2023-04-24T05:57:34.872Z,4.43
2023-04-24T06:00:05.434Z,4.78
2023-04-24T06:02:41.800Z,4.10
2023-04-24T06:05:13.185Z,4.55
2023-04-24T06:07:41.533Z,4.30
2023-04-24T06:10:10.760Z,4.68
2023-04-24T06:12:42.934Z,4.07
2023-04-24T06:15:16.720Z,5.10
2023-04-24T06:17:54.245Z,4.40
2023-04-24T06:20:22.414Z,4.18
2023-04-24T06:22:50.154Z,4.55
2023-04-24T06:25:17.830Z,6.30
2023-04-24T06:27:47.340Z,4.60
2023-04-24T06:30:15.104Z,3.85
2023-04-24T06:32:42.690Z,4.97
2023-04-24T06:35:12.609Z,4.28
2023-04-24T06:37:41.467Z,5.30
2023-04-24T06:40:09.752Z,4.57
2023-04-24T06:42:37.818Z,5.22
2023-04-24T06:45:07.008Z,3.90
2023-04-24T06:47:36.237Z,4.35
2023-04-24T06:50:04.178Z,4.55
2023-04-24T06:52:35.237Z,3.70
2023-04-24T06:55:04.347Z,4.22
2023-04-24T06:57:33.914Z,4.38
2023-04-24T07:00:01.437Z,3.72
2023-04-24T07:02:33.793Z,4.15
2023-04-24T07:05:02.403Z,3.85
2023-04-24T07:07:32.395Z,4.63
2023-04-24T07:10:00.290Z,4.28
2023-04-24T07:12:28.131Z,4.32
2023-04-24T07:14:55.953Z,4.38
2023-04-24T07:17:23.544Z,4.60
2023-04-24T07:19:51.145Z,3.72
2023-04-24T07:22:18.821Z,3.25
2023-04-24T07:24:46.781Z,4.63
2023-04-24T07:27:16.281Z,4.90
2023-04-24T07:29:44.761Z,3.72
2023-04-24T07:32:12.732Z,4.32
2023-04-24T07:34:40.411Z,3.78
2023-04-24T07:37:08.035Z,4.28
2023-04-24T07:39:35.627Z,3.83
2023-04-24T07:42:04.817Z,4.38
2023-04-24T07:44:33.242Z,3.30
2023-04-24T07:47:01.044Z,3.85
2023-04-24T07:49:29.030Z,3.58
2023-04-24T07:51:56.668Z,3.95
2023-04-24T07:54:24.335Z,3.53
2023-04-24T07:56:52.108Z,3.65
2023-04-24T07:59:19.678Z,4.35
2023-04-24T08:01:47.440Z,3.67
2023-04-24T08:04:15.631Z,3.78
2023-04-24T08:06:43.626Z,3.85
2023-04-24T08:09:11.314Z,3.47
2023-04-24T08:11:38.759Z,3.50
2023-04-24T08:14:06.666Z,3.83
2023-04-24T08:16:34.662Z,3.38
2023-04-24T08:19:02.709Z,4.57
2023-04-24T08:21:30.222Z,4.75
2023-04-24T08:23:57.820Z,3.70
2023-04-24T08:26:25.854Z,3.97
2023-04-24T08:28:53.465Z,3.53
2023-04-24T08:31:21.301Z,3.97
2023-04-24T08:33:48.791Z,3.55
2023-04-24T08:36:16.351Z,3.75
2023-04-24T08:38:43.937Z,3.63
2023-04-24T08:41:18.540Z,3.40
2023-04-24T08:43:54.696Z,3.45
2023-04-24T08:46:27.179Z,2.97
2023-04-24T08:48:55.164Z,3.30
2023-04-24T08:51:23.789Z,3.72
2023-04-24T08:53:54.817Z,4.15
2023-04-24T08:56:24.489Z,3.70
2023-04-24T08:58:53.963Z,3.50
2023-04-24T09:01:22.146Z,4.53
2023-04-24T09:03:50.170Z,3.20
2023-04-24T09:06:19.230Z,3.58
2023-04-24T09:08:48.312Z,3.20
2023-04-24T09:11:16.122Z,3.35
2023-04-24T09:13:44.693Z,3.72
2023-04-24T09:16:12.893Z,3.90
2023-04-24T09:18:40.507Z,4.18
2023-04-24T09:21:09.912Z,3.92
2023-04-24T09:23:37.556Z,3.70
2023-04-24T09:26:06.195Z,3.70
2023-04-24T09:28:37.921Z,3.90
2023-04-24T09:31:05.494Z,3.50
2023-04-24T09:33:33.257Z,3.53
2023-04-24T09:36:01.540Z,4.10
2023-04-24T09:38:39.662Z,3.83
2023-04-24T09:41:09.364Z,3.42
2023-04-24T09:43:37.153Z,3.40
2023-04-24T09:46:09.794Z,3.28
2023-04-24T09:48:38.909Z,3.75
2023-04-24T09:51:12.604Z,3.05
2023-04-24T09:53:43.143Z,3.65
2023-04-24T09:56:14.856Z,3.67
2023-04-24T09:58:42.593Z,3.10
2023-04-24T10:01:10.276Z,3.60
2023-04-24T10:03:37.879Z,4.18
2023-04-24T10:06:10.372Z,3.17
2023-04-24T10:08:38.693Z,3.40
2023-04-24T10:11:07.341Z,3.63
2023-04-24T10:13:35.823Z,3.30
2023-04-24T10:16:05.182Z,3.63
2023-04-24T10:18:33.891Z,3.60
2023-04-24T10:21:02.394Z,3.40
2023-04-24T10:23:31.385Z,3.85
2023-04-24T10:26:01.436Z,3.00
2023-04-24T10:28:32.830Z,3.10
2023-04-24T10:31:01.482Z,3.42
2023-04-24T10:33:31.742Z,3.55
2023-04-24T10:35:59.860Z,4.18
2023-04-24T10:38:30.744Z,3.70
2023-04-24T10:41:09.290Z,3.00
2023-04-24T10:43:37.135Z,3.17
2023-04-24T10:46:07.043Z,3.00
2023-04-24T10:48:35.665Z,3.50
2023-04-24T10:51:03.771Z,3.97
2023-04-24T10:53:32.251Z,3.17
2023-04-24T10:56:05.580Z,3.10
2023-04-24T10:58:54.864Z,3.63
2023-04-24T11:01:29.076Z,3.38
2023-04-24T11:03:59.436Z,3.35
2023-04-24T11:06:38.126Z,3.80
2023-04-24T11:09:08.448Z,2.95
2023-04-24T11:11:41.576Z,3.00
2023-04-24T11:14:09.595Z,3.53
2023-04-24T11:16:45.688Z,2.95
2023-04-24T11:19:16.525Z,3.55
2023-04-24T11:22:01.441Z,5.30
2023-04-24T11:24:40.183Z,4.70
2023-04-24T11:27:20.990Z,4.50
2023-04-24T11:29:58.357Z,3.63
2023-04-24T11:32:43.472Z,3.00
2023-04-24T11:35:23.329Z,3.33
2023-04-24T11:40:26.759Z,3.55
2023-04-24T11:42:56.681Z,3.75
2023-04-24T11:45:29.700Z,3.33
2023-04-24T11:47:58.160Z,2.97
2023-04-24T11:50:28.827Z,2.80
2023-04-24T11:52:57.190Z,3.35
2023-04-24T11:55:27.974Z,3.72
2023-04-24T11:58:00.493Z,3.60
2023-04-24T12:00:30.446Z,2.78
2023-04-24T12:03:12.647Z,3.13
2023-04-24T12:05:41.815Z,2.90
2023-04-24T12:08:10.548Z,2.65
2023-04-24T12:10:38.534Z,5.00
2023-04-24T12:13:06.591Z,3.30
2023-04-24T12:15:34.320Z,2.97
2023-04-24T12:18:02.113Z,2.97
2023-04-24T12:20:32.664Z,2.90
2023-04-24T12:23:02.064Z,2.70
2023-04-24T12:25:32.095Z,2.85
2023-04-24T12:28:05.988Z,3.08
2023-04-24T12:30:38.411Z,2.78
2023-04-24T12:33:06.238Z,2.95
2023-04-24T12:35:35.063Z,2.88
2023-04-24T12:38:15.759Z,2.78
2023-04-24T12:40:44.739Z,2.80
2023-04-24T12:43:20.300Z,3.30
2023-04-24T12:45:51.027Z,2.78
2023-04-24T12:48:18.795Z,2.72
2023-04-24T12:50:47.461Z,2.70
2023-04-24T12:53:21.836Z,2.70
2023-04-24T12:55:54.726Z,2.45
2023-04-24T12:58:22.992Z,4.32
2023-04-24T13:00:50.882Z,3.88
2023-04-24T13:03:19.297Z,3.10
2023-04-24T13:05:47.556Z,2.58
2023-04-24T13:08:15.229Z,3.05
2023-04-24T13:10:43.089Z,2.58
2023-04-24T13:13:10.772Z,3.15
2023-04-24T13:15:38.365Z,2.85
2023-04-24T13:18:06.178Z,4.60
2023-04-24T13:20:33.890Z,2.90
2023-04-24T13:23:01.763Z,2.95
2023-04-24T13:25:32.543Z,2.83
2023-04-24T13:28:02.552Z,3.05
2023-04-24T13:30:30.388Z,2.92
2023-04-24T13:32:58.152Z,2.75
2023-04-24T13:35:25.908Z,2.72
2023-04-24T13:37:53.435Z,3.38
2023-04-24T13:40:21.091Z,3.45
2023-04-24T13:42:48.799Z,3.33
2023-04-24T13:45:25.245Z,3.58
2023-04-24T13:47:54.676Z,3.35
2023-04-24T13:50:22.901Z,3.15
2023-04-24T13:52:50.494Z,3.03
2023-04-24T13:55:21.150Z,3.17
2023-04-24T13:57:50.157Z,3.10
2023-04-24T14:00:18.447Z,3.58
2023-04-24T14:02:46.212Z,2.83
2023-04-24T14:05:16.276Z,2.95
2023-04-24T14:07:43.733Z,2.80
2023-04-24T14:10:11.657Z,2.90
2023-04-24T14:12:39.377Z,3.03
2023-04-24T14:15:07.584Z,3.03
2023-04-24T14:17:35.351Z,2.67
2023-04-24T14:20:04.914Z,2.75
2023-04-24T14:22:34.167Z,3.42
2023-04-24T14:25:01.832Z,2.75
2023-04-24T14:27:31.593Z,2.60
2023-04-24T14:29:59.337Z,3.30
2023-04-24T14:32:27.140Z,3.20
2023-04-24T14:34:54.760Z,2.58
2023-04-24T14:37:22.384Z,2.40
2023-04-24T14:40:00.630Z,2.53
2023-04-24T14:42:37.527Z,3.67
2023-04-24T14:45:05.689Z,2.92
2023-04-24T14:47:33.561Z,3.00
2023-04-24T14:50:01.466Z,3.15
2023-04-24T14:52:31.591Z,2.60
2023-04-24T14:54:59.221Z,2.75
2023-04-24T14:57:27.352Z,2.78
2023-04-24T14:59:54.862Z,2.40
2023-04-24T15:02:22.741Z,2.90
2023-04-24T15:04:50.635Z,3.50
2023-04-24T15:07:18.542Z,2.60
2023-04-24T15:09:48.165Z,3.10
2023-04-24T15:12:15.983Z,2.85
2023-04-24T15:14:43.579Z,2.63
2023-04-24T15:17:11.083Z,2.70
2023-04-24T15:19:39.006Z,2.83
2023-04-24T15:22:06.551Z,2.85
2023-04-24T15:24:34.240Z,3.05
2023-04-24T15:27:02.881Z,3.67
2023-04-24T15:29:30.864Z,3.50
2023-04-24T15:31:58.831Z,3.13
2023-04-24T15:34:26.481Z,3.97
2023-04-24T15:36:53.961Z,3.47
2023-04-24T15:39:26.684Z,3.28
2023-04-24T15:41:54.459Z,3.42
2023-04-24T15:44:22.892Z,3.10
2023-04-24T15:46:52.426Z,3.92
2023-04-24T15:49:20.078Z,4.05
2023-04-24T15:51:47.755Z,3.33
2023-04-24T15:54:15.420Z,3.67
2023-04-24T15:56:44.737Z,3.92
2023-04-24T15:59:12.390Z,3.42
2023-04-24T16:01:40.463Z,4.82
2023-04-24T16:04:08.586Z,3.85
2023-04-24T16:06:37.000Z,3.47
2023-04-24T16:09:04.533Z,3.00
2023-04-24T16:11:34.130Z,3.10
2023-04-24T16:14:02.071Z,3.58
2023-04-24T16:16:29.605Z,3.72
2023-04-24T16:18:57.205Z,3.47
2023-04-24T16:21:26.349Z,3.22
2023-04-24T16:23:53.942Z,5.47
2023-04-24T16:26:21.741Z,3.13
2023-04-24T16:28:50.572Z,3.38
2023-04-24T16:31:18.397Z,3.35
2023-04-24T16:33:46.013Z,2.92
2023-04-24T16:36:13.716Z,3.78
2023-04-24T16:38:41.548Z,3.30
2023-04-24T16:41:09.291Z,3.40
2023-04-24T16:43:37.037Z,3.90
2023-04-24T16:46:04.760Z,3.65
2023-04-24T16:48:33.808Z,4.30
2023-04-24T16:51:01.710Z,3.28
2023-04-24T16:53:29.396Z,4.20
2023-04-24T16:55:57.203Z,3.92
2023-04-24T16:58:25.130Z,3.42
2023-04-24T17:00:52.731Z,3.85
2023-04-24T17:03:23.461Z,4.35
2023-04-24T17:05:51.436Z,4.00
2023-04-24T17:08:19.537Z,3.30
2023-04-24T17:10:47.069Z,4.25
2023-04-24T17:13:15.459Z,3.90
2023-04-24T17:15:43.219Z,3.72
2023-04-24T17:18:11.463Z,3.58
2023-04-24T17:20:39.539Z,3.70
2023-04-24T17:23:07.414Z,3.78
2023-04-24T17:25:35.056Z,4.55
2023-04-24T17:28:02.626Z,3.53
2023-04-24T17:30:30.338Z,3.70
2023-04-24T17:32:57.895Z,4.25
2023-04-24T17:35:25.717Z,4.03
2023-04-24T17:37:53.267Z,3.92
2023-04-24T17:40:20.968Z,4.30
2023-04-24T17:42:48.624Z,4.15
2023-04-24T17:45:16.596Z,4.10
2023-04-24T17:47:44.211Z,4.00
2023-04-24T17:50:12.629Z,3.58
2023-04-24T17:52:40.198Z,4.85
2023-04-24T17:55:08.311Z,17.75
2023-04-24T17:57:35.942Z,5.45
2023-04-24T18:00:04.449Z,4.90
2023-04-24T18:02:36.864Z,4.35
2023-04-24T18:05:04.805Z,3.72
2023-04-24T18:07:33.879Z,4.30
2023-04-24T18:10:01.433Z,3.88
2023-04-24T18:12:31.395Z,3.88
2023-04-24T18:15:13.029Z,3.70
2023-04-24T18:17:42.251Z,4.05
2023-04-24T18:20:10.150Z,4.18
2023-04-24T18:22:38.138Z,4.35
2023-04-24T18:25:06.249Z,4.55
2023-04-24T18:27:34.125Z,4.60
2023-04-24T18:30:03.216Z,5.97
2023-04-24T18:32:35.355Z,5.97
2023-04-24T18:35:04.111Z,4.00
2023-04-24T18:37:35.007Z,4.15
2023-04-24T18:40:03.848Z,3.88
2023-04-24T18:42:32.482Z,3.83
2023-04-24T18:45:01.972Z,4.18
2023-04-24T18:47:34.376Z,4.05
2023-04-24T18:50:02.116Z,4.03
2023-04-24T18:52:34.603Z,4.85
2023-04-24T18:55:04.218Z,5.30
2023-04-24T18:57:33.837Z,4.20
2023-04-24T19:00:01.598Z,3.80
2023-04-24T19:02:35.531Z,3.78
2023-04-24T19:05:03.484Z,4.97
2023-04-24T19:07:34.349Z,4.80
2023-04-24T19:10:02.101Z,4.45
2023-04-24T19:12:32.298Z,4.30
2023-04-24T19:15:00.402Z,4.28
2023-04-24T19:17:28.052Z,4.40
2023-04-24T19:19:55.593Z,3.80
2023-04-24T19:22:24.535Z,4.50
2023-04-24T19:24:53.820Z,4.47
2023-04-24T19:27:21.448Z,5.13
2023-04-24T19:29:48.944Z,4.25
2023-04-24T19:32:17.001Z,4.70
2023-04-24T19:34:45.104Z,4.55
2023-04-24T19:37:13.612Z,4.45
2023-04-24T19:39:41.698Z,4.50
2023-04-24T19:42:09.751Z,4.80
2023-04-24T19:44:37.706Z,4.53
2023-04-24T19:47:05.594Z,4.35
2023-04-24T19:49:33.456Z,13.65
2023-04-24T19:52:01.366Z,4.72
2023-04-24T19:54:29.849Z,4.88
2023-04-24T19:56:58.400Z,5.45
2023-04-24T19:59:26.775Z,4.20
2023-04-24T20:01:55.318Z,4.63
2023-04-24T20:04:23.595Z,4.82
2023-04-24T20:06:51.479Z,4.40
2023-04-24T20:09:19.354Z,4.57
2023-04-24T20:11:50.290Z,4.40
2023-04-24T20:14:18.249Z,5.80
2023-04-24T20:16:46.013Z,4.75
2023-04-24T20:19:14.174Z,5.03
2023-04-24T20:21:41.875Z,8.02
2023-04-24T20:24:10.878Z,8.73
2023-04-24T20:26:38.826Z,4.47
2023-04-24T20:29:07.051Z,4.95
2023-04-24T20:31:35.529Z,4.75
2023-04-24T20:34:03.776Z,4.30
2023-04-24T20:36:31.322Z,5.00
2023-04-24T20:38:59.668Z,4.93
2023-04-24T20:41:27.667Z,5.32
2023-04-24T20:43:55.425Z,6.00
2023-04-24T20:46:23.001Z,5.80
2023-04-24T20:48:50.832Z,9.75
2023-04-24T20:51:19.742Z,6.32
2023-04-24T20:53:49.546Z,5.50
2023-04-24T20:56:17.430Z,5.85
2023-04-24T20:58:48.487Z,5.28
2023-04-24T21:01:16.690Z,6.10
2023-04-24T21:03:44.625Z,5.63
2023-04-24T21:06:13.790Z,5.78
2023-04-24T21:08:41.669Z,5.85
2023-04-24T21:11:09.466Z,5.70
2023-04-24T21:13:36.988Z,5.38
2023-04-24T21:16:04.593Z,5.38
2023-04-24T21:18:33.016Z,5.80
2023-04-24T21:21:00.606Z,6.20
2023-04-24T21:23:28.222Z,6.32
2023-04-24T21:25:55.725Z,6.10
2023-04-24T21:28:25.404Z,6.43
2023-04-24T21:30:53.074Z,6.50
2023-04-24T21:33:20.734Z,9.95
2023-04-24T21:35:48.401Z,6.60
2023-04-24T21:38:16.012Z,7.15
2023-04-24T21:40:43.619Z,5.75
2023-04-24T21:43:12.322Z,5.78
2023-04-24T21:45:39.995Z,7.28
2023-04-24T21:48:07.630Z,6.82
2023-04-24T21:50:35.398Z,5.95
2023-04-24T21:53:02.979Z,6.18
2023-04-24T21:55:30.664Z,6.68
2023-04-24T21:57:58.286Z,6.13
2023-04-24T22:00:25.752Z,6.70
2023-04-24T22:02:53.498Z,6.10
2023-04-24T22:05:21.113Z,6.53
2023-04-24T22:07:50.627Z,5.57
2023-04-24T22:10:18.624Z,6.05
2023-04-24T22:12:47.492Z,6.03
2023-04-24T22:15:15.039Z,5.88
2023-04-24T22:17:43.600Z,5.97
2023-04-24T22:20:11.413Z,6.80
2023-04-24T22:22:38.996Z,5.13
2023-04-24T22:25:07.236Z,6.43
2023-04-24T22:27:35.716Z,4.93
2023-04-24T22:30:03.941Z,4.90
2023-04-24T22:32:34.548Z,5.93
2023-04-24T22:35:02.283Z,5.15
2023-04-24T22:37:32.663Z,4.93
2023-04-24T22:40:01.413Z,5.28
2023-04-24T22:42:32.176Z,4.70
2023-04-24T22:44:59.878Z,5.28
2023-04-24T22:47:27.529Z,4.65
2023-04-24T22:49:55.252Z,5.05
2023-04-24T22:52:22.688Z,4.90
2023-04-24T22:54:50.793Z,4.30
2023-04-24T22:57:18.371Z,5.07
2023-04-24T22:59:45.943Z,3.70
2023-04-24T23:02:13.805Z,4.70
2023-04-24T23:04:41.425Z,4.88
2023-04-24T23:07:08.963Z,4.80
2023-04-24T23:09:36.584Z,4.53
2023-04-24T23:12:04.400Z,4.45
2023-04-24T23:14:32.152Z,4.70
2023-04-24T23:16:59.755Z,4.30
2023-04-24T23:19:27.428Z,4.43
2023-04-24T23:21:55.143Z,4.20
2023-04-24T23:24:22.704Z,4.68
2023-04-24T23:26:50.186Z,4.15
2023-04-24T23:29:17.746Z,4.10
2023-04-24T23:31:45.266Z,4.68
2023-04-24T23:34:12.750Z,4.53
2023-04-24T23:36:40.270Z,4.30
2023-04-24T23:39:08.041Z,4.93
2023-04-24T23:41:35.796Z,4.65
2023-04-24T23:44:03.254Z,4.30
2023-04-24T23:46:31.425Z,4.00
2023-04-24T23:48:58.927Z,5.10
2023-04-24T23:51:26.694Z,4.55
2023-04-24T23:53:54.268Z,4.22
2023-04-24T23:56:24.501Z,5.20
2023-04-24T23:58:54.630Z,5.38
